Time,TemperatureF,DewpointF,PressureIn,WindDirection,WindDirectionDegrees,WindSpeedMPH,WindSpeedGustMPH,Humidity,HourlyPrecipIn,Conditions,Clouds,dailyrainin,SolarRadiationWatts/m^2,SoftwareType,DateUTC
2013-03-30 00:02:00,36.0,34.0,-100.00,SE,143,4.0,20.0,92,0.01,,,0.01,0.000000,,2013-03-30 06:02:00,
2013-03-30 00:11:00,36.0,34.0,-100.00,SE,143,4.0,20.0,92,0.01,,,0.01,0.000000,,2013-03-30 06:11:00,
2013-03-30 00:42:00,36.0,34.0,-100.00,SE,139,3.0,8.0,91,0.00,,,0.01,0.000000,,2013-03-30 06:42:00,
2013-03-30 00:52:00,36.0,34.0,-100.00,SE,139,3.0,8.0,91,0.00,,,0.01,0.000000,,2013-03-30 06:52:00,
2013-03-30 01:02:00,36.0,34.0,-100.00,SE,139,3.0,8.0,91,0.00,,,0.01,0.000000,,2013-03-30 07:02:00,
2013-03-30 01:12:00,36.0,34.0,-100.00,SE,139,3.0,8.0,91,0.00,,,0.01,0.000000,,2013-03-30 07:12:00,
2013-03-30 02:32:00,35.0,33.0,-100.00,West,266,1.0,3.0,93,-99.99,,,0.01,0.000000,,2013-03-30 08:32:00,
2013-03-30 02:42:00,35.0,33.0,-100.00,West,266,1.0,3.0,93,-99.99,,,0.01,0.000000,,2013-03-30 08:42:00,
2013-03-30 02:53:00,35.0,33.0,-100.00,West,266,1.0,3.0,93,-99.99,,,0.01,0.000000,,2013-03-30 08:53:00,
2013-03-30 03:02:00,35.0,33.0,-100.00,West,266,1.0,3.0,93,-99.99,,,0.01,0.000000,,2013-03-30 09:02:00,
2013-03-30 03:12:00,35.0,33.0,-100.00,West,266,1.0,3.0,93,-99.99,,,0.01,0.000000,,2013-03-30 09:12:00,
2013-03-30 04:33:00,33.0,32.0,-100.00,NW,321,1.0,3.0,95,-99.99,,,0.01,0.000000,,2013-03-30 10:33:00,
2013-03-30 04:42:00,33.0,32.0,-100.00,NW,321,1.0,3.0,95,-99.99,,,0.01,0.000000,,2013-03-30 10:42:00,
2013-03-30 04:52:00,33.0,32.0,-100.00,NW,321,1.0,3.0,95,-99.99,,,0.01,0.000000,,2013-03-30 10:52:00,
2013-03-30 05:03:00,33.0,32.0,-100.00,NW,321,1.0,3.0,95,-99.99,,,0.01,0.000000,,2013-03-30 11:03:00,
2013-03-30 05:12:00,33.0,32.0,-100.00,NW,321,1.0,3.0,95,-99.99,,,0.01,0.000000,,2013-03-30 11:12:00,
2013-03-30 05:33:00,32.0,31.0,-100.00,North,358,3.0,4.0,96,0.00,,,-99.99,0.000000,,2013-03-30 11:33:00,
2013-03-30 05:43:00,32.0,31.0,-100.00,North,358,3.0,4.0,96,0.00,,,-99.99,0.000000,,2013-03-30 11:43:00,
2013-03-30 05:53:00,32.0,31.0,-100.00,North,358,3.0,4.0,96,0.00,,,-99.99,0.000000,,2013-03-30 11:53:00,
2013-03-30 06:02:00,32.0,31.0,-100.00,North,358,3.0,4.0,96,0.00,,,-99.99,0.000000,,2013-03-30 12:02:00,
2013-03-30 06:12:00,32.0,31.0,-100.00,North,358,3.0,4.0,96,0.00,,,-99.99,0.000000,,2013-03-30 12:12:00,
2013-03-30 06:33:00,31.0,30.0,-100.00,SSE,151,2.0,3.0,95,0.00,,,0.01,0.000000,,2013-03-30 12:33:00,
2013-03-30 06:43:00,31.0,30.0,-100.00,SSE,151,2.0,3.0,95,0.00,,,0.01,0.000000,,2013-03-30 12:43:00,
2013-03-30 06:53:00,31.0,30.0,-100.00,SSE,151,2.0,3.0,95,0.00,,,0.01,0.000000,,2013-03-30 12:53:00,
2013-03-30 07:02:00,31.0,30.0,-100.00,SSE,151,2.0,3.0,95,0.00,,,0.01,0.000000,,2013-03-30 13:02:00,
2013-03-30 07:12:00,31.0,30.0,-100.00,SSE,151,2.0,3.0,95,0.00,,,0.01,0.000000,,2013-03-30 13:12:00,
2013-03-30 07:43:00,31.0,30.0,-100.00,South,169,0.0,3.0,97,0.00,,,0.01,3.000000,,2013-03-30 13:43:00,
2013-03-30 07:53:00,31.0,30.0,-100.00,South,169,0.0,3.0,97,0.00,,,0.01,3.000000,,2013-03-30 13:53:00,
2013-03-30 08:02:00,31.0,30.0,-100.00,South,169,0.0,3.0,97,0.00,,,0.01,3.000000,,2013-03-30 14:02:00,
2013-03-30 08:11:00,31.0,30.0,-100.00,South,169,0.0,3.0,97,0.00,,,0.01,3.000000,,2013-03-30 14:11:00,
2013-03-30 08:43:00,32.0,31.0,-100.00,North,0,3.0,6.0,95,0.00,,,0.01,106.000000,,2013-03-30 14:43:00,
2013-03-30 08:52:00,32.0,31.0,-100.00,North,0,3.0,6.0,95,0.00,,,0.01,106.000000,,2013-03-30 14:52:00,
2013-03-30 09:02:00,32.0,31.0,-100.00,North,0,3.0,6.0,95,0.00,,,0.01,106.000000,,2013-03-30 15:02:00,
2013-03-30 09:12:00,32.0,31.0,-100.00,North,0,3.0,6.0,95,0.00,,,0.01,106.000000,,2013-03-30 15:12:00,
2013-03-30 09:13:00,38.0,36.0,-100.00,SSE,168,1.0,3.0,94,0.00,,,0.01,314.000000,,2013-03-30 15:13:00,
2013-03-30 09:43:00,38.0,36.0,-100.00,SSE,168,1.0,3.0,94,0.00,,,0.01,314.000000,,2013-03-30 15:43:00,
2013-03-30 09:53:00,38.0,36.0,-100.00,SSE,168,1.0,3.0,94,0.00,,,0.01,314.000000,,2013-03-30 15:53:00,
2013-03-30 10:03:00,38.0,36.0,-100.00,SSE,168,1.0,3.0,94,0.00,,,0.01,314.000000,,2013-03-30 16:03:00,
2013-03-30 10:13:00,44.0,36.0,-100.00,SSE,154,4.0,7.0,72,0.00,,,0.01,590.000000,,2013-03-30 16:13:00,
2013-03-30 10:33:00,44.0,36.0,-100.00,SSE,154,4.0,7.0,72,0.00,,,0.01,590.000000,,2013-03-30 16:33:00,
2013-03-30 10:43:00,44.0,36.0,-100.00,SSE,154,4.0,7.0,72,0.00,,,0.01,590.000000,,2013-03-30 16:43:00,
2013-03-30 10:53:00,44.0,36.0,-100.00,SSE,154,4.0,7.0,72,0.00,,,0.01,590.000000,,2013-03-30 16:53:00,
2013-03-30 11:02:00,44.0,36.0,-100.00,SSE,154,4.0,7.0,72,0.00,,,0.01,590.000000,,2013-03-30 17:02:00,
2013-03-30 11:43:00,50.0,35.0,-100.00,SSE,158,5.0,9.0,56,0.00,,,0.01,850.000000,,2013-03-30 17:43:00,
2013-03-30 11:53:00,50.0,35.0,-100.00,SSE,158,5.0,9.0,56,0.00,,,0.01,850.000000,,2013-03-30 17:53:00,
2013-03-30 12:03:00,50.0,35.0,-100.00,SSE,158,5.0,9.0,56,0.00,,,0.01,850.000000,,2013-03-30 18:03:00,
2013-03-30 12:12:00,50.0,35.0,-100.00,SSE,158,5.0,9.0,56,0.00,,,0.01,850.000000,,2013-03-30 18:12:00,
2013-03-30 12:13:00,54.0,27.0,-100.00,SW,222,4.0,13.0,35,0.00,,,0.01,877.000000,,2013-03-30 18:13:00,
2013-03-30 12:33:00,54.0,27.0,-100.00,SW,222,4.0,13.0,35,0.00,,,0.01,877.000000,,2013-03-30 18:33:00,
2013-03-30 12:43:00,54.0,27.0,-100.00,SW,222,4.0,13.0,35,0.00,,,0.01,877.000000,,2013-03-30 18:43:00,
2013-03-30 12:53:00,54.0,27.0,-100.00,SW,222,4.0,13.0,35,0.00,,,0.01,877.000000,,2013-03-30 18:53:00,
2013-03-30 13:03:00,54.0,27.0,-100.00,SW,222,4.0,13.0,35,0.00,,,0.01,877.000000,,2013-03-30 19:03:00,
2013-03-30 14:43:00,62.0,17.0,-100.00,WSW,255,9.0,24.0,17,-99.99,,,0.01,1210.000000,,2013-03-30 20:43:00,
2013-03-30 14:53:00,62.0,17.0,-100.00,WSW,255,9.0,24.0,17,-99.99,,,0.01,1210.000000,,2013-03-30 20:53:00,
2013-03-30 15:02:00,62.0,17.0,-100.00,WSW,255,9.0,24.0,17,-99.99,,,0.01,1210.000000,,2013-03-30 21:02:00,
2013-03-30 15:12:00,62.0,17.0,-100.00,WSW,255,9.0,24.0,17,-99.99,,,0.01,1210.000000,,2013-03-30 21:12:00,
2013-03-30 15:13:00,58.0,16.0,-100.00,NW,313,8.0,21.0,19,0.00,,,0.01,759.000000,,2013-03-30 21:13:00,
2013-03-30 15:43:00,58.0,16.0,-100.00,NW,313,8.0,21.0,19,0.00,,,0.01,759.000000,,2013-03-30 21:43:00,
2013-03-30 15:53:00,58.0,16.0,-100.00,NW,313,8.0,21.0,19,0.00,,,0.01,759.000000,,2013-03-30 21:53:00,
2013-03-30 16:03:00,58.0,16.0,-100.00,NW,313,8.0,21.0,19,0.00,,,0.01,759.000000,,2013-03-30 22:03:00,
2013-03-30 16:43:00,59.0,14.0,-100.00,West,274,6.0,17.0,17,0.00,,,0.01,660.000000,,2013-03-30 22:43:00,
2013-03-30 16:53:00,59.0,14.0,-100.00,West,274,6.0,17.0,17,0.00,,,0.01,660.000000,,2013-03-30 22:53:00,
2013-03-30 17:02:00,59.0,14.0,-100.00,West,274,6.0,17.0,17,0.00,,,0.01,660.000000,,2013-03-30 23:02:00,
2013-03-30 17:12:00,59.0,14.0,-100.00,West,274,6.0,17.0,17,0.00,,,0.01,660.000000,,2013-03-30 23:12:00,
2013-03-30 17:43:00,55.0,19.0,-100.00,WNW,299,6.0,22.0,24,0.00,,,0.01,318.000000,,2013-03-30 23:43:00,
2013-03-30 17:53:00,55.0,19.0,-100.00,WNW,299,6.0,22.0,24,0.00,,,0.01,318.000000,,2013-03-30 23:53:00,
2013-03-30 18:02:00,55.0,19.0,-100.00,WNW,299,6.0,22.0,24,0.00,,,0.01,318.000000,,2013-03-31 00:02:00,
2013-03-30 18:12:00,55.0,19.0,-100.00,WNW,299,6.0,22.0,24,0.00,,,0.01,318.000000,,2013-03-31 00:12:00,
2013-03-30 18:43:00,52.0,22.0,-100.00,NNE,26,6.0,24.0,31,0.00,,,0.01,206.000000,,2013-03-31 00:43:00,
2013-03-30 18:53:00,52.0,22.0,-100.00,NNE,26,6.0,24.0,31,0.00,,,0.01,206.000000,,2013-03-31 00:53:00,
2013-03-30 19:02:00,52.0,22.0,-100.00,NNE,26,6.0,24.0,31,0.00,,,0.01,206.000000,,2013-03-31 01:02:00,
2013-03-30 19:12:00,52.0,22.0,-100.00,NNE,26,6.0,24.0,31,0.00,,,0.01,206.000000,,2013-03-31 01:12:00,
2013-03-30 19:13:00,48.0,23.0,-100.00,North,354,11.0,22.0,37,0.00,,,0.01,109.000000,,2013-03-31 01:13:00,
2013-03-30 19:32:00,48.0,23.0,-100.00,North,354,11.0,22.0,37,0.00,,,0.01,109.000000,,2013-03-31 01:32:00,
2013-03-30 19:43:00,48.0,23.0,-100.00,North,354,11.0,22.0,37,0.00,,,0.01,109.000000,,2013-03-31 01:43:00,
2013-03-30 19:53:00,48.0,23.0,-100.00,North,354,11.0,22.0,37,0.00,,,0.01,109.000000,,2013-03-31 01:53:00,
2013-03-30 20:02:00,48.0,23.0,-100.00,North,354,11.0,22.0,37,0.00,,,0.01,109.000000,,2013-03-31 02:02:00,
2013-03-30 20:43:00,42.0,27.0,-100.00,NW,312,5.0,26.0,54,0.00,,,0.01,6.000000,,2013-03-31 02:43:00,
2013-03-30 20:52:00,42.0,27.0,-100.00,NW,312,5.0,26.0,54,0.00,,,0.01,6.000000,,2013-03-31 02:52:00,
2013-03-30 21:02:00,42.0,27.0,-100.00,NW,312,5.0,26.0,54,0.00,,,0.01,6.000000,,2013-03-31 03:02:00,
2013-03-30 21:12:00,42.0,27.0,-100.00,NW,312,5.0,26.0,54,0.00,,,0.01,6.000000,,2013-03-31 03:12:00,
2013-03-30 21:13:00,40.0,26.0,-100.00,SE,125,4.0,15.0,58,0.00,,,0.01,0.000000,,2013-03-31 03:13:00,
2013-03-30 21:44:00,40.0,26.0,-100.00,SE,125,4.0,15.0,58,0.00,,,0.01,0.000000,,2013-03-31 03:44:00,
2013-03-30 21:54:00,40.0,26.0,-100.00,SE,125,4.0,15.0,58,0.00,,,0.01,0.000000,,2013-03-31 03:54:00,
2013-03-30 22:03:00,40.0,-99.9,-100.00,SE,125,4.0,15.0,58,0.00,,,0.01,0.000000,,2013-03-31 04:03:00,
2013-03-30 22:43:00,38.0,27.0,-100.00,ESE,115,3.0,12.0,64,0.00,,,0.01,0.000000,,2013-03-31 04:43:00,
2013-03-30 22:53:00,38.0,27.0,-100.00,ESE,115,3.0,12.0,64,0.00,,,0.01,0.000000,,2013-03-31 04:53:00,
2013-03-30 23:02:00,38.0,27.0,-100.00,ESE,115,3.0,12.0,64,0.00,,,0.01,0.000000,,2013-03-31 05:02:00,
2013-03-30 23:12:00,38.0,27.0,-100.00,ESE,115,3.0,12.0,64,0.00,,,0.01,0.000000,,2013-03-31 05:12:00,
2013-03-30 23:42:00,37.0,26.0,-100.00,NW,325,4.0,5.0,65,0.00,,,0.00,0.000000,,2013-03-31 05:42:00,
2013-03-30 23:53:00,37.0,26.0,-100.00,NW,325,4.0,5.0,65,0.00,,,0.00,0.000000,,2013-03-31 05:53:00,